createdAt,value
2018-06-30T00:00:17.695Z,0
2018-06-30T00:00:58.187Z,0
2018-06-30T00:01:38.710Z,0
2018-06-30T00:02:19.232Z,0
2018-06-30T00:02:59.741Z,0
2018-06-30T00:03:40.268Z,0
2018-06-30T00:04:20.790Z,0
2018-06-30T00:05:01.321Z,0
2018-06-30T00:05:41.836Z,0
2018-06-30T00:06:22.357Z,0
2018-06-30T00:07:02.872Z,0
2018-06-30T00:07:43.396Z,0
2018-06-30T00:08:23.916Z,0
2018-06-30T00:09:04.440Z,0
2018-06-30T00:09:44.991Z,0
2018-06-30T00:10:25.523Z,0
2018-06-30T00:11:06.033Z,0
2018-06-30T00:11:46.545Z,0
2018-06-30T00:12:27.067Z,0
2018-06-30T00:13:07.593Z,0
2018-06-30T00:13:48.115Z,0
2018-06-30T00:14:28.611Z,0
2018-06-30T00:15:09.128Z,0
2018-06-30T00:15:49.680Z,0
2018-06-30T00:16:30.148Z,0
2018-06-30T00:17:10.707Z,0
2018-06-30T00:17:51.227Z,0
2018-06-30T00:18:31.723Z,0
2018-06-30T00:19:12.231Z,0
2018-06-30T00:19:52.772Z,0
2018-06-30T00:20:33.328Z,0
2018-06-30T00:21:13.851Z,0
2018-06-30T00:21:54.343Z,0
2018-06-30T00:22:34.893Z,0
2018-06-30T00:23:15.414Z,0
2018-06-30T00:23:55.894Z,0
2018-06-30T00:24:36.412Z,0
2018-06-30T00:25:16.918Z,0
2018-06-30T00:25:57.435Z,0
2018-06-30T00:26:37.956Z,0
2018-06-30T00:27:18.484Z,0
2018-06-30T00:27:58.991Z,0
2018-06-30T00:28:39.519Z,0
2018-06-30T00:29:20.060Z,0
2018-06-30T00:30:00.568Z,0
2018-06-30T00:30:41.086Z,0
2018-06-30T00:31:21.607Z,0
2018-06-30T00:32:02.144Z,0
2018-06-30T00:32:42.700Z,0
2018-06-30T00:33:23.226Z,0
2018-06-30T00:34:03.690Z,0
2018-06-30T00:34:44.190Z,0
2018-06-30T00:35:24.705Z,0
2018-06-30T00:36:05.369Z,0
2018-06-30T00:36:45.878Z,0
2018-06-30T00:37:26.401Z,0
2018-06-30T00:38:06.909Z,0
2018-06-30T00:38:47.407Z,0
2018-06-30T00:39:27.912Z,0
2018-06-30T00:40:08.430Z,0
2018-06-30T00:40:48.948Z,0
2018-06-30T00:41:29.478Z,0
2018-06-30T00:42:10.009Z,0
2018-06-30T00:42:50.521Z,0
2018-06-30T00:43:31.039Z,0
2018-06-30T00:44:11.557Z,0
2018-06-30T00:44:52.084Z,0
2018-06-30T00:45:32.594Z,0
2018-06-30T00:46:13.104Z,0
2018-06-30T00:46:53.637Z,0
2018-06-30T00:47:34.198Z,0
2018-06-30T00:48:14.711Z,0
2018-06-30T00:48:55.242Z,0
2018-06-30T00:49:35.780Z,0
2018-06-30T00:50:16.298Z,0
2018-06-30T00:50:56.829Z,0
2018-06-30T00:51:37.369Z,0
2018-06-30T00:52:17.940Z,0
2018-06-30T00:52:58.410Z,0
2018-06-30T00:53:39.000Z,0
2018-06-30T00:54:19.513Z,0
2018-06-30T00:55:00.048Z,0
2018-06-30T00:55:40.588Z,0
2018-06-30T00:56:21.110Z,0
2018-06-30T00:57:01.642Z,0
2018-06-30T00:57:42.183Z,0
2018-06-30T00:58:22.710Z,0
2018-06-30T00:59:03.236Z,0
2018-06-30T00:59:43.743Z,0
2018-06-30T01:00:24.276Z,0
2018-06-30T01:01:04.861Z,0
2018-06-30T01:01:45.319Z,0
2018-06-30T01:02:25.857Z,0
2018-06-30T01:03:06.387Z,0
2018-06-30T01:03:46.906Z,0
2018-06-30T01:04:27.417Z,0
2018-06-30T01:05:07.950Z,0
2018-06-30T01:05:48.462Z,0
2018-06-30T01:06:28.991Z,0
2018-06-30T01:07:09.512Z,0
2018-06-30T01:07:50.029Z,0
2018-06-30T01:08:30.554Z,0
2018-06-30T01:09:11.076Z,0
2018-06-30T01:09:51.632Z,0
2018-06-30T01:10:32.143Z,0
2018-06-30T01:11:12.684Z,0
2018-06-30T01:11:53.205Z,0
2018-06-30T01:12:33.734Z,0
2018-06-30T01:13:14.288Z,0
2018-06-30T01:13:54.807Z,0
2018-06-30T01:14:35.334Z,0
2018-06-30T01:15:15.863Z,0
2018-06-30T01:15:56.391Z,0
2018-06-30T01:16:36.915Z,0
2018-06-30T01:17:17.437Z,0
2018-06-30T01:17:57.953Z,0
2018-06-30T01:18:38.491Z,0
2018-06-30T01:19:18.999Z,0
2018-06-30T01:19:59.528Z,0
2018-06-30T01:20:40.053Z,0
2018-06-30T01:21:20.572Z,0
2018-06-30T01:22:01.088Z,0
2018-06-30T01:22:41.618Z,0
2018-06-30T01:23:22.142Z,0
2018-06-30T01:24:02.662Z,0
2018-06-30T01:24:43.189Z,0
2018-06-30T01:25:23.698Z,0
2018-06-30T01:26:04.220Z,0
2018-06-30T01:26:44.730Z,0
2018-06-30T01:27:25.249Z,0
2018-06-30T01:28:05.784Z,0
2018-06-30T01:28:46.293Z,0
2018-06-30T01:29:26.751Z,0
2018-06-30T01:30:07.255Z,0
2018-06-30T01:30:47.760Z,0
2018-06-30T01:31:28.281Z,0
2018-06-30T01:32:08.789Z,0
2018-06-30T01:32:49.956Z,0
2018-06-30T01:33:30.448Z,0
2018-06-30T01:34:11.005Z,0
2018-06-30T01:34:51.523Z,0
2018-06-30T01:35:32.025Z,0
2018-06-30T01:36:12.546Z,0
2018-06-30T01:36:53.038Z,0
2018-06-30T01:37:33.569Z,0
2018-06-30T01:38:14.083Z,0
2018-06-30T01:38:54.598Z,0
2018-06-30T01:39:35.078Z,0
2018-06-30T01:40:15.578Z,0
2018-06-30T01:40:56.060Z,0
2018-06-30T01:41:36.561Z,0
2018-06-30T01:42:17.069Z,0
2018-06-30T01:42:57.552Z,0
2018-06-30T01:43:38.065Z,0
2018-06-30T01:44:18.584Z,0
2018-06-30T01:44:59.095Z,0
2018-06-30T01:45:39.593Z,0
2018-06-30T01:46:20.134Z,0
2018-06-30T01:47:00.636Z,0
2018-06-30T01:47:41.152Z,0
2018-06-30T01:48:21.686Z,0
2018-06-30T01:49:02.146Z,0
2018-06-30T01:49:42.659Z,0
2018-06-30T01:50:23.188Z,0
2018-06-30T01:51:03.663Z,0
2018-06-30T01:51:44.179Z,0
2018-06-30T01:52:24.707Z,0
2018-06-30T01:53:05.228Z,0
2018-06-30T01:53:45.746Z,0
2018-06-30T01:54:26.249Z,0
2018-06-30T01:55:06.772Z,0
2018-06-30T01:55:47.282Z,0
2018-06-30T01:56:27.803Z,0
2018-06-30T01:57:08.351Z,0
2018-06-30T01:57:48.863Z,0
2018-06-30T01:58:29.374Z,0
2018-06-30T01:59:09.894Z,0
2018-06-30T01:59:50.426Z,0
2018-06-30T02:00:30.973Z,0
2018-06-30T02:01:11.484Z,0
2018-06-30T02:01:52.018Z,0
2018-06-30T02:02:32.548Z,0
2018-06-30T02:03:13.046Z,0
2018-06-30T02:03:53.578Z,0
2018-06-30T02:04:34.107Z,0
2018-06-30T02:05:14.622Z,0
2018-06-30T02:05:55.119Z,0
2018-06-30T02:06:35.659Z,0
2018-06-30T02:07:16.185Z,0
2018-06-30T02:07:56.703Z,0
2018-06-30T02:08:37.252Z,0
2018-06-30T02:09:17.762Z,0
2018-06-30T02:09:58.283Z,0
2018-06-30T02:10:38.795Z,0
2018-06-30T02:11:19.276Z,0
2018-06-30T02:11:59.788Z,0
2018-06-30T02:12:40.305Z,0
2018-06-30T02:13:20.848Z,0
2018-06-30T02:14:01.379Z,0
2018-06-30T02:14:41.894Z,0
2018-06-30T02:15:22.410Z,0
2018-06-30T02:16:02.877Z,0
2018-06-30T02:16:43.392Z,0
2018-06-30T02:17:23.910Z,0
2018-06-30T02:18:04.423Z,0
2018-06-30T02:18:44.951Z,0
2018-06-30T02:19:25.478Z,0
2018-06-30T02:20:05.976Z,0
2018-06-30T02:20:46.503Z,0
2018-06-30T02:21:27.035Z,0
2018-06-30T02:22:07.532Z,0
2018-06-30T02:22:48.097Z,0
2018-06-30T02:23:28.617Z,0
2018-06-30T02:24:09.142Z,0
2018-06-30T02:24:49.653Z,0
2018-06-30T02:25:30.175Z,0
2018-06-30T02:26:10.706Z,0
2018-06-30T02:26:51.213Z,0
2018-06-30T02:27:31.744Z,0
2018-06-30T02:28:12.263Z,0
2018-06-30T02:28:52.784Z,0
2018-06-30T02:29:33.301Z,0
2018-06-30T02:30:13.798Z,0
2018-06-30T02:30:54.307Z,0
2018-06-30T02:31:34.831Z,0
2018-06-30T02:32:15.321Z,0
2018-06-30T02:32:55.850Z,0
2018-06-30T02:33:36.352Z,0
2018-06-30T02:34:16.894Z,0
2018-06-30T02:34:57.411Z,0
2018-06-30T02:35:37.915Z,0
2018-06-30T02:36:18.445Z,0
2018-06-30T02:36:58.956Z,0
2018-06-30T02:37:39.463Z,0
2018-06-30T02:38:19.974Z,0
2018-06-30T02:39:00.596Z,0
2018-06-30T02:39:40.999Z,0
2018-06-30T02:40:21.552Z,0
2018-06-30T02:41:02.062Z,0
2018-06-30T02:41:42.565Z,0
2018-06-30T02:42:23.075Z,0
2018-06-30T02:43:03.601Z,0
2018-06-30T02:43:44.088Z,0
2018-06-30T02:44:24.634Z,0
2018-06-30T02:45:05.166Z,0
2018-06-30T02:45:45.693Z,0
2018-06-30T02:46:26.184Z,0
2018-06-30T02:47:06.703Z,0
2018-06-30T02:47:47.214Z,0
2018-06-30T02:48:27.752Z,0
2018-06-30T02:49:08.247Z,0
2018-06-30T02:49:48.776Z,0
2018-06-30T02:50:29.274Z,0
2018-06-30T02:51:09.800Z,0
2018-06-30T02:51:50.309Z,0
2018-06-30T02:54:03.591Z,0
2018-06-30T02:54:44.105Z,0
2018-06-30T02:55:24.631Z,0
2018-06-30T02:56:05.148Z,0
2018-06-30T02:56:45.668Z,0
2018-06-30T02:57:26.186Z,0
2018-06-30T02:58:06.694Z,0
2018-06-30T02:58:47.209Z,0
2018-06-30T02:59:27.728Z,0
2018-06-30T03:00:08.257Z,0
2018-06-30T03:00:48.768Z,0
2018-06-30T03:01:29.285Z,0
2018-06-30T03:02:09.813Z,0
2018-06-30T03:02:50.324Z,0
2018-06-30T03:03:30.842Z,0
2018-06-30T03:04:11.370Z,0
2018-06-30T03:04:51.895Z,0
2018-06-30T03:05:32.415Z,0
2018-06-30T03:06:12.970Z,0
2018-06-30T03:06:53.500Z,0
2018-06-30T03:07:34.008Z,0
2018-06-30T03:08:14.531Z,0
2018-06-30T03:08:55.052Z,0
2018-06-30T03:09:35.576Z,0
2018-06-30T03:10:16.095Z,0
2018-06-30T03:10:56.614Z,0
2018-06-30T03:11:37.142Z,0
2018-06-30T03:12:17.646Z,0
2018-06-30T03:12:58.151Z,0
2018-06-30T03:13:38.669Z,0
2018-06-30T03:14:19.226Z,0
2018-06-30T03:14:59.743Z,0
2018-06-30T03:15:40.258Z,0
2018-06-30T03:16:20.806Z,0
2018-06-30T03:17:01.311Z,0
2018-06-30T03:17:41.829Z,0
2018-06-30T03:18:22.347Z,0
2018-06-30T03:19:02.878Z,5
2018-06-30T03:19:43.392Z,5
2018-06-30T03:20:23.912Z,5
2018-06-30T03:21:04.436Z,5
2018-06-30T03:21:44.989Z,5
2018-06-30T03:22:25.476Z,5
2018-06-30T03:23:06.022Z,5
2018-06-30T03:23:46.577Z,5
2018-06-30T03:24:27.085Z,5
2018-06-30T03:25:07.594Z,5
2018-06-30T03:25:48.125Z,5
2018-06-30T03:26:28.649Z,5
2018-06-30T03:27:09.186Z,5
2018-06-30T03:27:49.709Z,5
2018-06-30T03:28:30.276Z,5
2018-06-30T03:29:10.779Z,10
2018-06-30T03:29:51.305Z,10
2018-06-30T03:30:31.819Z,10
2018-06-30T03:31:12.335Z,10
2018-06-30T03:31:52.870Z,10
2018-06-30T03:32:33.384Z,10
2018-06-30T03:33:13.902Z,10
2018-06-30T03:33:54.417Z,10
2018-06-30T03:34:34.914Z,10
2018-06-30T03:35:15.431Z,15
2018-06-30T03:35:55.933Z,15
2018-06-30T03:36:36.463Z,15
2018-06-30T03:37:16.989Z,15
2018-06-30T03:37:57.514Z,15
2018-06-30T03:38:38.083Z,15
2018-06-30T03:39:18.556Z,15
2018-06-30T03:39:59.062Z,20
2018-06-30T03:40:39.578Z,20
2018-06-30T03:41:20.126Z,20
2018-06-30T03:42:00.644Z,20
2018-06-30T03:42:41.164Z,20
2018-06-30T03:43:21.671Z,20
2018-06-30T03:44:02.178Z,20
2018-06-30T03:44:42.666Z,25
2018-06-30T03:45:23.186Z,25
2018-06-30T03:46:03.704Z,25
2018-06-30T03:46:44.222Z,25
2018-06-30T03:47:24.767Z,25
2018-06-30T03:48:05.254Z,25
2018-06-30T03:48:45.773Z,30
2018-06-30T03:49:26.297Z,30
2018-06-30T03:50:06.806Z,30
2018-06-30T03:50:47.324Z,30
2018-06-30T03:51:27.881Z,30
2018-06-30T03:52:08.388Z,30
2018-06-30T03:52:48.953Z,35
2018-06-30T03:53:29.473Z,35
2018-06-30T03:54:09.987Z,35
2018-06-30T03:54:50.509Z,35
2018-06-30T03:55:31.026Z,35
2018-06-30T03:56:11.534Z,35
2018-06-30T03:56:52.067Z,40
2018-06-30T03:57:32.583Z,40
2018-06-30T03:58:13.118Z,40
2018-06-30T03:58:53.633Z,40
2018-06-30T03:59:34.156Z,40
2018-06-30T04:00:14.672Z,45
2018-06-30T04:00:55.192Z,45
2018-06-30T04:01:35.725Z,45
2018-06-30T04:02:16.244Z,45
2018-06-30T04:02:56.763Z,50
2018-06-30T04:03:37.277Z,50
2018-06-30T04:04:17.799Z,50
2018-06-30T04:04:58.319Z,50
2018-06-30T04:05:38.858Z,50
2018-06-30T04:06:19.387Z,55
2018-06-30T04:06:59.913Z,60
2018-06-30T04:07:40.416Z,60
2018-06-30T04:08:20.940Z,60
2018-06-30T04:09:01.460Z,60
2018-06-30T04:09:41.970Z,60
2018-06-30T04:10:22.492Z,60
2018-06-30T04:11:03.008Z,70
2018-06-30T04:11:43.512Z,75
2018-06-30T04:12:24.022Z,75
2018-06-30T04:13:04.542Z,70
2018-06-30T04:13:45.055Z,65
2018-06-30T04:14:25.576Z,65
2018-06-30T04:15:06.126Z,65
2018-06-30T04:15:46.637Z,65
2018-06-30T04:16:27.160Z,70
2018-06-30T04:17:07.662Z,70
2018-06-30T04:17:48.183Z,70
2018-06-30T04:18:28.701Z,70
2018-06-30T04:19:09.206Z,70
2018-06-30T04:19:49.711Z,75
2018-06-30T04:20:30.244Z,75
2018-06-30T04:21:10.781Z,75
2018-06-30T04:21:51.322Z,75
2018-06-30T04:22:31.807Z,80
2018-06-30T04:23:12.327Z,80
2018-06-30T04:23:52.854Z,80
2018-06-30T04:24:33.374Z,80
2018-06-30T04:25:13.888Z,80
2018-06-30T04:25:54.392Z,80
2018-06-30T04:26:34.916Z,85
2018-06-30T04:27:15.445Z,85
2018-06-30T04:27:55.974Z,85
2018-06-30T04:28:36.486Z,85
2018-06-30T04:29:17.005Z,85
2018-06-30T04:29:57.518Z,85
2018-06-30T04:30:38.074Z,85
2018-06-30T04:31:18.616Z,85
2018-06-30T04:31:59.119Z,90
2018-06-30T04:32:39.641Z,90
2018-06-30T04:33:20.163Z,90
2018-06-30T04:34:00.679Z,90
2018-06-30T04:34:41.200Z,90
2018-06-30T04:35:21.709Z,95
2018-06-30T04:36:02.246Z,100
2018-06-30T04:36:42.762Z,95
2018-06-30T04:37:23.288Z,95
2018-06-30T04:38:03.799Z,95
2018-06-30T04:38:44.313Z,95
2018-06-30T04:39:24.829Z,105
2018-06-30T04:40:05.347Z,115
2018-06-30T04:40:45.870Z,125
2018-06-30T04:41:26.406Z,125
2018-06-30T04:42:06.920Z,115
2018-06-30T04:42:47.442Z,120
2018-06-30T04:43:27.968Z,155
2018-06-30T04:44:08.496Z,235
2018-06-30T04:44:49.005Z,370
2018-06-30T04:45:29.522Z,490
2018-06-30T04:46:10.038Z,585
2018-06-30T04:46:50.553Z,450
2018-06-30T04:47:31.079Z,295
2018-06-30T04:48:11.575Z,250
2018-06-30T04:48:52.124Z,155
2018-06-30T04:49:32.626Z,135
2018-06-30T04:50:13.143Z,125
2018-06-30T04:50:53.719Z,120
2018-06-30T04:51:34.203Z,115
2018-06-30T04:52:14.727Z,115
2018-06-30T04:52:55.246Z,110
2018-06-30T04:53:35.760Z,110
2018-06-30T04:54:16.269Z,120
2018-06-30T04:54:56.802Z,125
2018-06-30T04:55:37.326Z,130
2018-06-30T04:56:17.842Z,155
2018-06-30T04:56:58.357Z,170
2018-06-30T04:57:38.882Z,165
2018-06-30T04:58:19.407Z,175
2018-06-30T04:58:59.921Z,215
2018-06-30T04:59:40.470Z,170
2018-06-30T05:00:20.976Z,135
2018-06-30T05:01:01.521Z,135
2018-06-30T05:01:42.041Z,135
2018-06-30T05:02:22.611Z,155
2018-06-30T05:03:03.124Z,155
2018-06-30T05:03:43.626Z,140
2018-06-30T05:04:24.136Z,140
2018-06-30T05:05:04.663Z,140
2018-06-30T05:05:45.190Z,130
2018-06-30T05:06:25.706Z,135
2018-06-30T05:07:06.217Z,140
2018-06-30T05:07:46.734Z,145
2018-06-30T05:08:27.231Z,140
2018-06-30T05:09:07.743Z,155
2018-06-30T05:09:48.261Z,160
2018-06-30T05:10:28.794Z,160
2018-06-30T05:11:09.318Z,130
2018-06-30T05:11:49.838Z,120
2018-06-30T05:12:30.344Z,125
2018-06-30T05:13:10.892Z,140
2018-06-30T05:13:51.430Z,160
2018-06-30T05:14:31.930Z,160
2018-06-30T05:15:12.493Z,140
2018-06-30T05:15:52.975Z,130
2018-06-30T05:16:33.479Z,130
2018-06-30T05:17:13.980Z,160
2018-06-30T05:17:54.494Z,245
2018-06-30T05:18:35.022Z,320
2018-06-30T05:19:15.584Z,305
2018-06-30T05:19:56.109Z,260
2018-06-30T05:20:36.621Z,210
2018-06-30T05:21:17.151Z,180
2018-06-30T05:21:57.669Z,155
2018-06-30T05:22:38.191Z,145
2018-06-30T05:23:18.725Z,145
2018-06-30T05:23:59.238Z,160
2018-06-30T05:24:39.829Z,190
2018-06-30T05:25:20.360Z,230
2018-06-30T05:26:00.991Z,210
2018-06-30T05:26:41.368Z,205
2018-06-30T05:27:21.878Z,185
2018-06-30T05:28:02.388Z,210
2018-06-30T05:28:42.942Z,405
2018-06-30T05:29:23.477Z,610
2018-06-30T05:30:03.985Z,580
2018-06-30T05:30:44.507Z,330
2018-06-30T05:31:25.022Z,165
2018-06-30T05:32:05.556Z,145
2018-06-30T05:32:46.068Z,155
2018-06-30T05:33:26.680Z,155
2018-06-30T05:34:07.146Z,165
2018-06-30T05:34:47.689Z,165
2018-06-30T05:35:28.218Z,170
2018-06-30T05:36:08.734Z,165
2018-06-30T05:36:49.276Z,160
2018-06-30T05:37:29.797Z,155
2018-06-30T05:38:10.326Z,150
2018-06-30T05:38:50.849Z,145
2018-06-30T05:39:31.375Z,140
2018-06-30T05:40:11.930Z,140
2018-06-30T05:40:52.422Z,140
2018-06-30T05:41:32.977Z,135
2018-06-30T05:42:13.525Z,135
2018-06-30T05:42:54.033Z,135
2018-06-30T05:43:34.563Z,145
2018-06-30T05:44:15.080Z,140
2018-06-30T05:44:55.596Z,145
2018-06-30T05:45:36.122Z,140
2018-06-30T05:46:16.634Z,140
2018-06-30T05:46:57.153Z,140
2018-06-30T05:47:37.694Z,140
2018-06-30T05:48:18.205Z,140
2018-06-30T05:48:58.731Z,145
2018-06-30T05:49:39.229Z,155
2018-06-30T05:50:19.764Z,160
2018-06-30T05:51:00.290Z,175
2018-06-30T05:51:40.796Z,165
2018-06-30T05:52:21.307Z,175
2018-06-30T05:53:01.826Z,155
2018-06-30T05:53:42.342Z,150
2018-06-30T05:54:22.863Z,165
2018-06-30T05:55:03.377Z,185
2018-06-30T05:55:43.897Z,170
2018-06-30T05:56:24.416Z,170
2018-06-30T05:57:04.935Z,160
2018-06-30T05:57:45.448Z,175
2018-06-30T05:58:26.463Z,210
2018-06-30T05:59:07.006Z,245
2018-06-30T05:59:47.530Z,280
2018-06-30T06:00:28.048Z,325
2018-06-30T06:01:08.554Z,350
2018-06-30T06:01:49.088Z,345
2018-06-30T06:02:29.606Z,345
2018-06-30T06:03:10.128Z,350
2018-06-30T06:03:50.665Z,345
2018-06-30T06:04:31.198Z,335
2018-06-30T06:05:11.707Z,320
2018-06-30T06:05:52.226Z,315
2018-06-30T06:06:32.752Z,305
2018-06-30T06:07:13.267Z,295
2018-06-30T06:07:53.796Z,285
2018-06-30T06:08:34.316Z,285
2018-06-30T06:09:14.816Z,280
2018-06-30T06:09:55.343Z,280
2018-06-30T06:10:35.856Z,275
2018-06-30T06:11:16.371Z,280
2018-06-30T06:11:56.873Z,280
2018-06-30T06:12:37.409Z,280
2018-06-30T06:13:17.924Z,280
2018-06-30T06:13:58.471Z,280
2018-06-30T06:14:38.970Z,280
2018-06-30T06:15:19.561Z,280
2018-06-30T06:16:00.033Z,285
2018-06-30T06:16:40.614Z,280
2018-06-30T06:17:21.128Z,290
2018-06-30T06:18:01.645Z,280
2018-06-30T06:18:42.160Z,280
2018-06-30T06:19:22.694Z,280
2018-06-30T06:20:03.233Z,275
2018-06-30T06:20:43.761Z,275
2018-06-30T06:21:24.272Z,275
2018-06-30T06:22:04.788Z,275
2018-06-30T06:22:45.295Z,275
2018-06-30T06:23:25.811Z,275
2018-06-30T06:24:06.355Z,275
2018-06-30T06:24:46.903Z,275
2018-06-30T06:25:27.428Z,275
2018-06-30T06:26:07.942Z,275
2018-06-30T06:26:48.463Z,270
2018-06-30T06:27:29.088Z,270
2018-06-30T06:28:09.603Z,270
2018-06-30T06:28:50.138Z,270
2018-06-30T06:29:30.603Z,270
2018-06-30T06:30:11.188Z,270
2018-06-30T06:30:51.692Z,270
2018-06-30T06:31:32.240Z,270
2018-06-30T06:32:12.744Z,265
2018-06-30T06:32:53.296Z,265
2018-06-30T06:33:33.773Z,265
2018-06-30T06:34:14.313Z,265
2018-06-30T06:34:54.836Z,265
2018-06-30T06:35:35.375Z,265
2018-06-30T06:36:15.897Z,265
2018-06-30T06:36:56.420Z,260
2018-06-30T06:37:40.300Z,260
2018-06-30T06:38:20.810Z,260
2018-06-30T06:39:01.335Z,260
2018-06-30T06:39:41.875Z,260
2018-06-30T06:40:22.487Z,260
2018-06-30T06:41:03.011Z,260
2018-06-30T06:41:43.620Z,260
2018-06-30T06:42:24.107Z,260
2018-06-30T06:43:04.637Z,260
2018-06-30T06:43:45.161Z,260
2018-06-30T06:44:25.654Z,260
2018-06-30T06:45:06.188Z,255
2018-06-30T06:45:46.817Z,260
2018-06-30T06:46:27.340Z,255
2018-06-30T06:47:07.862Z,255
2018-06-30T06:47:48.392Z,255
2018-06-30T06:48:28.919Z,255
2018-06-30T06:49:09.462Z,260
2018-06-30T06:49:49.958Z,255
2018-06-30T06:50:30.482Z,255
2018-06-30T06:51:11.015Z,255
2018-06-30T06:51:51.546Z,255
2018-06-30T06:52:32.065Z,255
2018-06-30T06:53:12.602Z,250
2018-06-30T06:53:53.161Z,250
2018-06-30T06:54:33.696Z,255
2018-06-30T07:04:11.729Z,250
2018-06-30T07:04:52.053Z,250
2018-06-30T07:05:32.600Z,250
2018-06-30T07:06:13.139Z,250
2018-06-30T07:06:53.667Z,255
2018-06-30T07:07:34.198Z,250
2018-06-30T07:08:14.731Z,250
2018-06-30T07:08:55.551Z,250
2018-06-30T07:09:35.993Z,245
2018-06-30T07:10:16.504Z,245
2018-06-30T07:10:57.043Z,245
2018-06-30T07:11:37.565Z,245
2018-06-30T07:12:18.101Z,245
2018-06-30T07:12:58.664Z,245
2018-06-30T07:13:39.190Z,245
2018-06-30T07:14:19.908Z,245
2018-06-30T07:15:00.292Z,245
2018-06-30T07:15:41.595Z,245
2018-06-30T07:16:22.186Z,245
2018-06-30T07:17:02.699Z,245
2018-06-30T07:17:43.212Z,245
2018-06-30T07:18:23.710Z,240
2018-06-30T07:19:04.229Z,240
2018-06-30T07:19:44.762Z,240
2018-06-30T07:22:23.493Z,240
2018-06-30T07:23:04.048Z,240
2018-06-30T07:23:44.567Z,240
2018-06-30T07:24:25.279Z,240
2018-06-30T07:25:05.594Z,140
2018-06-30T07:25:46.147Z,220
2018-06-30T07:26:26.645Z,220
2018-06-30T07:27:07.166Z,235
2018-06-30T07:27:47.783Z,235
2018-06-30T07:28:28.224Z,240
2018-06-30T07:29:08.788Z,235
2018-06-30T07:29:49.302Z,235
2018-06-30T07:30:30.472Z,235
2018-06-30T07:31:11.133Z,235
2018-06-30T07:31:51.682Z,235
2018-06-30T07:32:32.210Z,230
2018-06-30T07:33:12.726Z,235
2018-06-30T07:33:53.308Z,230
2018-06-30T07:34:33.791Z,230
2018-06-30T07:35:14.312Z,230
2018-06-30T07:35:54.836Z,230
2018-06-30T07:36:35.447Z,230
2018-06-30T07:37:16.038Z,230
2018-06-30T07:37:56.826Z,230
2018-06-30T07:38:37.232Z,230
2018-06-30T07:39:17.740Z,225
2018-06-30T07:39:58.272Z,225
2018-06-30T07:40:39.035Z,225
2018-06-30T07:41:19.582Z,225
2018-06-30T07:42:00.068Z,225
2018-06-30T07:42:40.591Z,225
2018-06-30T07:43:21.441Z,225
2018-06-30T07:44:01.796Z,220
2018-06-30T07:44:42.165Z,220
2018-06-30T07:45:22.697Z,220
2018-06-30T07:46:03.234Z,220
2018-06-30T07:46:43.753Z,220
2018-06-30T07:47:24.252Z,220
2018-06-30T07:48:04.781Z,220
2018-06-30T07:48:45.380Z,220
2018-06-30T07:49:25.901Z,215
2018-06-30T07:50:06.457Z,215
2018-06-30T07:50:46.985Z,215
2018-06-30T07:51:27.515Z,215
2018-06-30T07:52:08.030Z,215
2018-06-30T07:52:48.552Z,200
2018-06-30T07:53:29.090Z,110
2018-06-30T07:54:09.598Z,135
2018-06-30T07:54:50.125Z,135
2018-06-30T07:55:30.670Z,135
2018-06-30T07:56:11.191Z,135
2018-06-30T07:56:51.830Z,135
2018-06-30T07:57:32.391Z,135
2018-06-30T07:58:12.921Z,135
2018-06-30T07:58:53.445Z,135
2018-06-30T07:59:33.986Z,135
2018-06-30T08:00:14.557Z,130
2018-06-30T08:00:55.090Z,140
2018-06-30T08:01:35.610Z,135
2018-06-30T08:02:16.130Z,135
2018-06-30T08:02:56.661Z,130
2018-06-30T08:03:37.189Z,130
2018-06-30T08:04:17.706Z,130
2018-06-30T08:04:58.261Z,125
2018-06-30T08:05:38.776Z,125
2018-06-30T08:06:19.314Z,125
2018-06-30T08:06:59.849Z,125
2018-06-30T08:07:40.357Z,125
2018-06-30T08:08:20.883Z,125
2018-06-30T08:09:01.412Z,125
2018-06-30T08:09:41.937Z,120
2018-06-30T08:10:22.474Z,120
2018-06-30T08:11:03.011Z,120
2018-06-30T08:11:43.545Z,120
2018-06-30T08:12:24.065Z,120
2018-06-30T08:13:04.620Z,115
2018-06-30T08:13:45.221Z,115
2018-06-30T08:14:25.683Z,115
2018-06-30T08:15:06.207Z,115
2018-06-30T08:15:46.724Z,115
2018-06-30T08:16:27.258Z,115
2018-06-30T08:17:07.784Z,115
2018-06-30T08:17:48.310Z,110
2018-06-30T08:18:28.824Z,110
2018-06-30T08:19:09.347Z,110
2018-06-30T08:19:49.880Z,110
2018-06-30T08:20:30.396Z,110
2018-06-30T08:21:10.973Z,110
2018-06-30T08:21:51.442Z,105
2018-06-30T08:22:31.968Z,105
2018-06-30T08:23:12.497Z,105
2018-06-30T08:23:53.056Z,105
2018-06-30T08:24:33.587Z,105
2018-06-30T08:25:14.109Z,105
2018-06-30T08:25:54.652Z,100
2018-06-30T08:26:35.155Z,100
2018-06-30T08:27:15.691Z,100
2018-06-30T08:27:56.224Z,100
2018-06-30T08:28:36.792Z,100
2018-06-30T08:29:17.312Z,100
2018-06-30T08:29:57.842Z,95
2018-06-30T08:30:38.344Z,95
2018-06-30T08:31:18.873Z,95
2018-06-30T08:31:59.409Z,95
2018-06-30T08:32:39.936Z,90
2018-06-30T08:33:20.461Z,85
2018-06-30T08:34:00.993Z,85
2018-06-30T08:34:41.544Z,85
2018-06-30T08:35:22.070Z,80
2018-06-30T08:36:02.595Z,80
2018-06-30T08:36:43.128Z,80
2018-06-30T08:37:23.650Z,80
2018-06-30T08:38:04.196Z,80
2018-06-30T08:38:44.712Z,80
2018-06-30T08:39:25.249Z,80
2018-06-30T08:40:05.780Z,80
2018-06-30T08:40:46.289Z,80
2018-06-30T08:41:26.823Z,80
2018-06-30T08:42:07.336Z,80
2018-06-30T08:42:47.854Z,80
2018-06-30T08:43:28.382Z,80
2018-06-30T08:44:08.910Z,80
2018-06-30T08:44:49.428Z,80
2018-06-30T08:45:29.979Z,80
2018-06-30T08:46:10.523Z,80
2018-06-30T08:46:51.046Z,75
2018-06-30T08:47:31.561Z,75
2018-06-30T08:48:12.095Z,75
2018-06-30T08:48:52.600Z,75
2018-06-30T08:49:33.150Z,75
2018-06-30T08:50:13.745Z,75
2018-06-30T08:50:54.272Z,75
2018-06-30T08:51:34.790Z,75
2018-06-30T08:52:15.331Z,75
2018-06-30T08:52:55.852Z,75
2018-06-30T08:53:36.373Z,75
2018-06-30T08:54:16.911Z,75
2018-06-30T08:54:57.459Z,75
2018-06-30T08:55:37.994Z,75
2018-06-30T08:56:18.516Z,75
2018-06-30T08:56:59.054Z,75
2018-06-30T08:57:39.577Z,75
2018-06-30T08:58:20.104Z,70
2018-06-30T08:59:00.650Z,70
2018-06-30T08:59:41.175Z,70
2018-06-30T09:00:21.720Z,70
2018-06-30T09:01:02.233Z,70
2018-06-30T09:01:42.773Z,70
2018-06-30T09:03:56.070Z,70
2018-06-30T09:04:36.590Z,70
2018-06-30T09:05:17.132Z,70
2018-06-30T09:05:57.659Z,70
2018-06-30T09:06:38.244Z,70
2018-06-30T09:07:18.801Z,70
2018-06-30T09:07:59.346Z,70
2018-06-30T09:08:39.873Z,70
2018-06-30T09:09:20.393Z,75
2018-06-30T09:10:00.916Z,70
2018-06-30T09:10:41.471Z,70
2018-06-30T09:11:21.956Z,70
2018-06-30T09:12:02.540Z,70
2018-06-30T09:12:42.999Z,75
2018-06-30T09:13:23.525Z,70
2018-06-30T09:14:04.041Z,70
2018-06-30T09:14:44.565Z,70
2018-06-30T09:15:25.101Z,75
2018-06-30T09:16:05.650Z,65
2018-06-30T09:16:46.157Z,70
2018-06-30T09:17:26.680Z,65
2018-06-30T09:18:07.213Z,75
2018-06-30T09:18:47.734Z,70
2018-06-30T09:19:28.304Z,65
2018-06-30T09:20:08.881Z,65
2018-06-30T09:20:49.356Z,70
2018-06-30T09:21:29.871Z,65
2018-06-30T09:22:10.389Z,65
2018-06-30T09:22:50.954Z,65
2018-06-30T09:23:31.473Z,65
2018-06-30T09:24:12.054Z,65
2018-06-30T09:24:52.543Z,65
2018-06-30T09:25:33.085Z,65
2018-06-30T09:26:13.601Z,65
2018-06-30T09:26:54.129Z,65
2018-06-30T09:27:34.697Z,65
2018-06-30T09:28:15.174Z,65
2018-06-30T09:28:55.717Z,65
2018-06-30T09:29:36.280Z,65
2018-06-30T09:30:16.802Z,65
2018-06-30T09:30:57.280Z,65
2018-06-30T09:31:37.820Z,65
2018-06-30T09:32:18.372Z,65
2018-06-30T09:32:58.913Z,65
2018-06-30T09:33:39.411Z,65
2018-06-30T09:34:19.942Z,65
2018-06-30T09:35:00.486Z,65
2018-06-30T09:35:41.030Z,65
2018-06-30T09:36:21.562Z,65
2018-06-30T09:37:02.091Z,65
2018-06-30T09:37:42.643Z,65
2018-06-30T09:38:23.202Z,65
2018-06-30T09:39:03.734Z,65
2018-06-30T09:39:44.261Z,65
2018-06-30T09:40:24.770Z,65
2018-06-30T09:41:05.280Z,65
2018-06-30T09:41:45.989Z,65
2018-06-30T09:42:26.512Z,65
2018-06-30T09:43:07.015Z,65
2018-06-30T09:43:47.522Z,65
2018-06-30T09:44:28.072Z,65
2018-06-30T09:45:08.618Z,65
2018-06-30T09:45:49.191Z,65
2018-06-30T09:46:29.719Z,65
2018-06-30T09:47:10.263Z,65
2018-06-30T09:47:50.801Z,65
2018-06-30T09:48:31.323Z,65
2018-06-30T09:49:11.849Z,65
2018-06-30T09:49:52.648Z,65
2018-06-30T09:50:33.176Z,65
2018-06-30T09:51:13.696Z,65